Time;durP1;ratioP1;P1;durP2;ratioP2;P2;SDS_P1;SDS_P2;PMS_P1;PMS_P2;Temp;Humidity;BMP_temperature;BMP_pressure;BME280_temperature;BME280_humidity;BME280_pressure;Samples;Min_cycle;Max_cycle;Signal;HPM_P1;HPM_P2
2024/01/29 00:01:04;;;;;;;5.40;2.90;;;;;;;;;;5092961;27;20066;-85
2024/01/29 00:03:30;;;;;;;6.32;2.90;;;;;;;;;;5099123;27;20440;-86
2024/01/29 00:05:57;;;;;;;8.80;2.90;;;;;;;;;;5088259;27;20162;-86
2024/01/29 00:08:23;;;;;;;8.65;2.90;;;;;;;;;;5100085;27;20039;-85
2024/01/29 00:10:49;;;;;;;5.70;2.97;;;;;;;;;;5109086;27;20566;-86
2024/01/29 00:13:16;;;;;;;8.82;3.03;;;;;;;;;;5130564;27;20043;-86
2024/01/29 00:15:42;;;;;;;8.57;3.17;;;;;;;;;;5102477;27;20561;-86
2024/01/29 00:18:08;;;;;;;8.38;3.08;;;;;;;;;;5119077;27;20043;-86
2024/01/29 00:20:34;;;;;;;;;;;;;;;;;;5118410;27;20098;-86
2024/01/29 00:23:00;;;;;;;5.07;2.50;;;;;;;;;;5101395;27;19931;-86
2024/01/29 00:25:26;;;;;;;;;;;;;;;;;;5099140;27;20580;-86
2024/01/29 00:27:52;;;;;;;5.38;2.70;;;;;;;;;;5131371;27;19970;-86
2024/01/29 00:30:19;;;;;;;;;;;;;;;;;;5123859;27;20139;-86
2024/01/29 00:32:45;;;;;;;7.97;3.03;;;;;;;;;;5129338;27;19922;-87
2024/01/29 00:35:11;;;;;;;7.70;3.05;;;;;;;;;;5126711;27;20551;-87
2024/01/29 00:37:38;;;;;;;6.68;3.05;;;;;;;;;;5096360;27;20507;-86
2024/01/29 00:40:05;;;;;;;7.60;3.28;;;;;;;;;;5107052;27;20433;-86
2024/01/29 00:42:31;;;;;;;7.38;3.20;;;;;;;;;;5116624;27;20413;-86
2024/01/29 00:44:57;;;;;;;8.55;3.55;;;;;;;;;;5125317;27;20096;-86
2024/01/29 00:47:23;;;;;;;7.65;3.20;;;;;;;;;;5130677;27;20043;-85
2024/01/29 00:49:49;;;;;;;7.05;3.10;;;;;;;;;;5118340;27;20051;-85
2024/01/29 00:52:15;;;;;;;7.30;2.95;;;;;;;;;;5136001;27;20153;-86
2024/01/29 00:54:41;;;;;;;6.22;3.10;;;;;;;;;;5100239;27;20043;-86
2024/01/29 00:57:07;;;;;;;6.47;3.08;;;;;;;;;;5098814;27;20047;-86
2024/01/29 00:59:33;;;;;;;4.68;2.42;;;;;;;;;;5081593;27;20057;-86
2024/01/29 01:02:00;;;;;;;7.05;2.90;;;;;;;;;;5098406;27;20046;-86
2024/01/29 01:04:25;;;;;;;;;;;;;;;;;;5082359;27;20404;-86
2024/01/29 01:06:52;;;;;;;6.85;3.35;;;;;;;;;;5114160;27;19919;-85
2024/01/29 01:09:18;;;;;;;;;;;;;;;;;;5097066;27;20499;-86
2024/01/29 01:11:44;;;;;;;6.38;3.17;;;;;;;;;;5115148;27;20352;-86
2024/01/29 01:14:10;;;;;;;;;;;;;;;;;;5116020;27;20168;-86
2024/01/29 01:16:36;;;;;;;7.43;3.10;;;;;;;;;;5114595;27;19966;-85
2024/01/29 01:19:02;;;;;;;8.18;2.80;;;;;;;;;;5114906;27;20039;-85
2024/01/29 01:21:28;;;;;;;6.55;2.92;;;;;;;;;;5097243;27;20082;-86
2024/01/29 01:23:54;;;;;;;;;;;;;;;;;;5081583;28;20092;-86
2024/01/29 01:26:20;;;;;;;5.22;2.70;;;;;;;;;;5115118;27;19923;-86
2024/01/29 01:28:46;;;;;;;8.95;3.10;;;;;;;;;;5081310;27;20241;-85
2024/01/29 01:31:12;;;;;;;6.88;3.40;;;;;;;;;;5097131;27;20101;-86
2024/01/29 01:33:38;;;;;;;;;;;;;;;;;;5115388;27;20047;-85
2024/01/29 01:36:04;;;;;;;7.28;3.17;;;;;;;;;;5124824;27;19919;-86
2024/01/29 01:38:30;;;;;;;;;;;;;;;;;;5086897;27;20042;-86
2024/01/29 01:40:56;;;;;;;8.27;3.22;;;;;;;;;;5133776;27;20025;-86
2024/01/29 01:43:26;;;;;;;5.95;2.80;;;;;;;;;;5118391;27;20046;-86
2024/01/29 01:46:18;;;;;;;6.43;3.70;;;;;;;;;;5134775;27;20039;-86
2024/01/29 01:48:45;;;;;;;11.00;3.50;;;;;;;;;;5132399;27;20449;-86
2024/01/29 01:51:11;;;;;;;;;;;;;;;;;;5135103;27;20475;-86
2024/01/29 01:53:38;;;;;;;7.55;3.33;;;;;;;;;;5114686;28;20017;-86
2024/01/29 01:56:05;;;;;;;9.07;3.55;;;;;;;;;;5097894;28;20039;-85
2024/01/29 01:58:33;;;;;;;10.15;3.47;;;;;;;;;;5117147;28;20050;-86
2024/01/29 02:00:59;;;;;;;9.75;3.15;;;;;;;;;;5114030;28;20072;-86
2024/01/29 02:03:28;;;;;;;8.68;3.60;;;;;;;;;;5117736;27;20521;-86
2024/01/29 02:05:55;;;;;;;8.82;3.10;;;;;;;;;;5133757;27;20728;-87
2024/01/29 02:08:21;;;;;;;7.13;3.20;;;;;;;;;;5118323;27;20046;-85
2024/01/29 02:10:47;;;;;;;;;;;;;;;;;;5135344;27;20129;-86
2024/01/29 02:13:14;;;;;;;7.75;3.58;;;;;;;;;;5118480;27;19976;-86
2024/01/29 02:15:40;;;;;;;8.18;3.30;;;;;;;;;;5117447;27;20054;-86
2024/01/29 02:18:06;;;;;;;;;;;;;;;;;;5111458;28;20035;-86
2024/01/29 02:20:32;;;;;;;7.38;3.40;;;;;;;;;;5113963;28;19943;-86
2024/01/29 02:22:58;;;;;;;;;;;;;;;;;;5080647;28;20050;-86
2024/01/29 02:25:24;;;;;;;7.93;3.38;;;;;;;;;;5114716;28;19919;-86
2024/01/29 02:27:50;;;;;;;;;;;;;;;;;;5114939;28;20130;-86
2024/01/29 02:30:16;;;;;;;8.02;3.30;;;;;;;;;;5110622;28;19969;-87
2024/01/29 02:32:42;;;;;;;;;;;;;;;;;;5111453;28;20048;-87
2024/01/29 02:35:08;;;;;;;7.03;3.00;;;;;;;;;;5110274;28;19950;-87
2024/01/29 02:37:34;;;;;;;;;;;;;;;;;;5095942;28;20036;-86
2024/01/29 02:40:00;;;;;;;9.73;2.92;;;;;;;;;;5114239;28;19978;-86
2024/01/29 02:42:26;;;;;;;;;;;;;;;;;;5110296;28;20146;-86
2024/01/29 02:44:52;;;;;;;7.40;3.28;;;;;;;;;;5114167;28;19963;-85
2024/01/29 02:47:18;;;;;;;8.25;3.40;;;;;;;;;;5100153;27;20039;-86
2024/01/29 02:49:44;;;;;;;8.90;3.80;;;;;;;;;;5117863;27;20054;-87
2024/01/29 02:52:11;;;;;;;9.13;3.65;;;;;;;;;;5100726;27;20496;-86
2024/01/29 02:54:37;;;;;;;6.65;3.17;;;;;;;;;;5118335;27;20694;-86
2024/01/29 02:57:04;;;;;;;8.73;3.67;;;;;;;;;;5117871;27;20043;-86
2024/01/29 02:59:30;;;;;;;7.28;3.10;;;;;;;;;;5096848;28;20547;-86
2024/01/29 03:01:56;;;;;;;;;;;;;;;;;;5114564;28;20043;-86
2024/01/29 03:04:22;;;;;;;7.47;2.90;;;;;;;;;;5114837;28;19919;-86
2024/01/29 03:06:48;;;;;;;;;;;;;;;;;;5096782;28;20048;-86
2024/01/29 03:09:14;;;;;;;10.30;3.28;;;;;;;;;;5114701;28;19941;-86
2024/01/29 03:11:40;;;;;;;7.95;3.72;;;;;;;;;;5097831;28;20160;-86
2024/01/29 03:14:07;;;;;;;7.15;3.53;;;;;;;;;;5097524;28;20094;-86
2024/01/29 03:16:32;;;;;;;;;;;;;;;;;;5080791;28;20092;-87
2024/01/29 03:18:59;;;;;;;8.40;3.17;;;;;;;;;;5114354;27;19920;-86
2024/01/29 03:21:27;;;;;;;;;;;;;;;;;;5113924;28;20476;-86
2024/01/29 03:23:53;;;;;;;6.82;3.40;;;;;;;;;;5114119;28;20273;-86
2024/01/29 03:26:19;;;;;;;7.10;3.15;;;;;;;;;;5114110;28;20507;-87
2024/01/29 03:28:45;;;;;;;7.68;3.55;;;;;;;;;;5113741;28;20050;-86
2024/01/29 03:31:12;;;;;;;6.95;3.60;;;;;;;;;;5093238;28;20104;-86
2024/01/29 03:33:38;;;;;;;;;;;;;;;;;;5094441;28;20051;-86
2024/01/29 03:36:04;;;;;;;8.07;3.67;;;;;;;;;;5092248;28;19934;-86
2024/01/29 03:38:30;;;;;;;9.25;3.72;;;;;;;;;;5093544;28;20126;-86
2024/01/29 03:40:56;;;;;;;8.38;3.60;;;;;;;;;;5093302;28;20044;-86
2024/01/29 03:43:22;;;;;;;6.03;3.45;;;;;;;;;;5103007;28;20050;-86
2024/01/29 03:45:48;;;;;;;8.63;3.80;;;;;;;;;;5095822;28;20047;-85
2024/01/29 03:48:14;;;;;;;7.85;3.67;;;;;;;;;;5079830;28;20071;-86
2024/01/29 03:50:41;;;;;;;7.13;3.58;;;;;;;;;;5096064;28;20104;-86
2024/01/29 03:53:07;;;;;;;8.13;3.58;;;;;;;;;;5078970;28;20047;-86
2024/01/29 03:55:33;;;;;;;9.45;3.92;;;;;;;;;;5113784;28;20039;-86
2024/01/29 03:57:59;;;;;;;6.50;3.35;;;;;;;;;;5096469;28;20549;-86
2024/01/29 04:00:26;;;;;;;6.40;3.83;;;;;;;;;;5093169;28;20093;-86
2024/01/29 04:02:52;;;;;;;8.80;3.92;;;;;;;;;;5093011;28;20048;-86
2024/01/29 04:05:18;;;;;;;;;;;;;;;;;;5110279;28;20039;-86
2024/01/29 04:07:45;;;;;;;9.38;4.20;;;;;;;;;;5094444;28;20504;-86
2024/01/29 04:10:11;;;;;;;8.70;3.90;;;;;;;;;;5076138;28;20469;-86
2024/01/29 04:12:37;;;;;;;8.00;3.70;;;;;;;;;;5093162;28;20051;-86
2024/01/29 04:15:03;;;;;;;;;;;;;;;;;;5104435;28;20057;-87
2024/01/29 04:17:29;;;;;;;8.13;3.20;;;;;;;;;;5113330;28;20010;-86
2024/01/29 04:19:55;;;;;;;8.93;3.67;;;;;;;;;;5094746;28;20094;-87
2024/01/29 04:22:21;;;;;;;8.40;3.55;;;;;;;;;;5112571;28;20472;-86
2024/01/29 04:24:47;;;;;;;;;;;;;;;;;;5096879;28;20058;-87
2024/01/29 04:27:13;;;;;;;10.00;4.10;;;;;;;;;;5112907;28;20364;-86
2024/01/29 04:29:39;;;;;;;;;;;;;;;;;;5096844;28;20489;-86
2024/01/29 04:32:06;;;;;;;9.70;3.80;;;;;;;;;;5111146;28;19924;-86
2024/01/29 04:34:32;;;;;;;;;;;;;;;;;;5096590;28;20047;-86
2024/01/29 04:36:58;;;;;;;7.97;3.92;;;;;;;;;;5111625;28;20014;-86
2024/01/29 04:39:24;;;;;;;9.63;3.58;;;;;;;;;;5095780;28;20039;-86
2024/01/29 04:41:50;;;;;;;;;;;;;;;;;;5096355;28;20092;-87
2024/01/29 04:44:16;;;;;;;7.68;3.60;;;;;;;;;;5112506;28;19919;-86
2024/01/29 04:46:42;;;;;;;8.05;3.75;;;;;;;;;;5094977;27;20556;-86
2024/01/29 04:49:08;;;;;;;9.18;3.83;;;;;;;;;;5099022;27;20115;-86
2024/01/29 04:51:34;;;;;;;9.98;3.83;;;;;;;;;;5098558;27;20043;-86
2024/01/29 04:54:00;;;;;;;7.50;3.80;;;;;;;;;;5094905;28;20048;-86
2024/01/29 04:56:26;;;;;;;;;;;;;;;;;;5113052;28;20039;-87
2024/01/29 04:58:53;;;;;;;7.70;4.00;;;;;;;;;;5115552;27;20014;-87
2024/01/29 05:01:19;;;;;;;7.68;4.25;;;;;;;;;;5115729;27;20043;-86
2024/01/29 05:03:45;;;;;;;;;;;;;;;;;;5123281;27;20047;-87
2024/01/29 05:06:11;;;;;;;6.70;3.60;;;;;;;;;;5102734;28;19920;-87
2024/01/29 05:08:37;;;;;;;7.43;3.90;;;;;;;;;;5095420;28;20080;-86
2024/01/29 05:11:03;;;;;;;6.72;3.63;;;;;;;;;;5095087;28;20047;-86
2024/01/29 05:13:29;;;;;;;;;;;;;;;;;;5096224;28;20180;-87
2024/01/29 05:15:56;;;;;;;7.75;3.67;;;;;;;;;;5111593;28;19998;-87
2024/01/29 05:18:22;;;;;;;7.40;3.92;;;;;;;;;;5095302;28;20040;-86
2024/01/29 05:20:48;;;;;;;8.38;4.03;;;;;;;;;;5077766;28;20048;-86
2024/01/29 05:23:14;;;;;;;8.82;3.92;;;;;;;;;;5078658;27;20046;-86
2024/01/29 05:25:40;;;;;;;;;;;;;;;;;;5094190;28;20741;-86
2024/01/29 05:28:06;;;;;;;10.35;4.10;;;;;;;;;;5108409;27;19941;-86
2024/01/29 05:30:32;;;;;;;6.75;3.50;;;;;;;;;;5098161;27;20057;-86
2024/01/29 05:32:58;;;;;;;;;;;;;;;;;;5115314;27;20055;-85
2024/01/29 05:35:24;;;;;;;8.20;3.78;;;;;;;;;;5114744;27;19925;-86
2024/01/29 05:37:50;;;;;;;;;;;;;;;;;;5115458;28;20045;-86
2024/01/29 05:40:16;;;;;;;8.02;3.78;;;;;;;;;;5132026;27;20396;-86
2024/01/29 05:42:43;;;;;;;8.18;4.40;;;;;;;;;;5088804;28;20084;-87
2024/01/29 05:45:09;;;;;;;6.88;3.65;;;;;;;;;;5123814;27;20385;-86
2024/01/29 05:47:35;;;;;;;;;;;;;;;;;;5112163;28;20047;-86
2024/01/29 05:50:05;;;;;;;8.90;4.10;;;;;;;;;;5110420;28;20383;-86
2024/01/29 05:52:31;;;;;;;8.65;3.90;;;;;;;;;;5095332;28;20058;-87
2024/01/29 05:54:57;;;;;;;11.48;3.50;;;;;;;;;;5111562;28;20138;-87
2024/01/29 05:57:23;;;;;;;10.13;4.13;;;;;;;;;;5094385;28;20044;-86
2024/01/29 05:59:49;;;;;;;9.02;4.10;;;;;;;;;;5111208;28;20089;-87
2024/01/29 06:02:15;;;;;;;10.32;4.00;;;;;;;;;;5077460;28;20477;-87
2024/01/29 06:04:41;;;;;;;10.13;4.18;;;;;;;;;;5094349;28;20054;-87
2024/01/29 06:07:07;;;;;;;;;;;;;;;;;;5112662;28;20511;-86
2024/01/29 06:09:33;;;;;;;8.75;4.32;;;;;;;;;;5111528;28;19968;-86
2024/01/29 06:11:59;;;;;;;10.82;4.65;;;;;;;;;;5094346;28;20065;-87
2024/01/29 06:14:26;;;;;;;9.18;4.40;;;;;;;;;;5111449;28;20040;-86
2024/01/29 06:16:52;;;;;;;10.68;4.50;;;;;;;;;;5096485;28;20043;-86
2024/01/29 06:19:19;;;;;;;;;;;;;;;;;;5115295;28;20040;-87
2024/01/29 06:21:45;;;;;;;11.02;4.30;;;;;;;;;;5131751;27;20369;-86
2024/01/29 06:24:11;;;;;;;7.88;3.67;;;;;;;;;;5124325;27;20483;-86
2024/01/29 06:26:37;;;;;;;7.88;3.92;;;;;;;;;;5118850;27;20051;-86
2024/01/29 06:29:04;;;;;;;10.73;4.32;;;;;;;;;;5099938;27;20104;-87
2024/01/29 06:31:30;;;;;;;8.48;4.05;;;;;;;;;;5114525;28;20451;-86
2024/01/29 06:33:57;;;;;;;7.97;4.05;;;;;;;;;;5081558;28;20048;-86
2024/01/29 06:36:23;;;;;;;8.10;4.20;;;;;;;;;;5080145;28;20101;-86
2024/01/29 06:38:49;;;;;;;8.65;4.40;;;;;;;;;;5127111;27;20165;-87
2024/01/29 06:41:22;;;;;;;8.52;3.88;;;;;;;;;;5100987;28;20052;-86
2024/01/29 06:43:49;;;;;;;9.48;4.55;;;;;;;;;;5097925;28;20437;-87
2024/01/29 06:46:15;;;;;;;7.65;4.07;;;;;;;;;;5114034;28;20036;-87
2024/01/29 06:48:41;;;;;;;9.05;4.00;;;;;;;;;;5098136;28;20048;-87
2024/01/29 06:51:07;;;;;;;;;;;;;;;;;;5113971;28;20077;-86
2024/01/29 06:53:36;;;;;;;7.90;4.32;;;;;;;;;;5115273;28;20065;-86
2024/01/29 06:56:04;;;;;;;9.68;4.15;;;;;;;;;;5107544;28;20039;-87
2024/01/29 06:58:37;;;;;;;8.23;4.35;;;;;;;;;;5127229;27;20047;-86
2024/01/29 07:01:07;;;;;;;10.48;4.40;;;;;;;;;;5118076;27;20047;-86
2024/01/29 07:03:33;;;;;;;9.10;4.78;;;;;;;;;;5118358;27;20051;-87
2024/01/29 07:05:59;;;;;;;;;;;;;;;;;;5113471;28;20044;-87
2024/01/29 07:08:25;;;;;;;9.43;4.10;;;;;;;;;;5114067;28;19919;-87
2024/01/29 07:10:51;;;;;;;8.95;4.85;;;;;;;;;;5129491;27;20074;-87
2024/01/29 07:13:17;;;;;;;;;;;;;;;;;;5097577;28;20051;-87
2024/01/29 07:15:44;;;;;;;9.80;4.20;;;;;;;;;;5114554;28;19926;-87
2024/01/29 07:18:09;;;;;;;;;;;;;;;;;;5097632;28;20049;-87
2024/01/29 07:20:41;;;;;;;9.32;4.47;;;;;;;;;;5096868;28;20357;-87
2024/01/29 07:23:07;;;;;;;9.27;4.15;;;;;;;;;;5116565;27;20092;-90
2024/01/29 07:25:34;;;;;;;8.32;3.95;;;;;;;;;;5118530;27;20049;-90
2024/01/29 07:28:02;;;;;;;9.18;4.40;;;;;;;;;;5134962;27;20043;-89
2024/01/29 07:30:28;;;;;;;10.45;4.57;;;;;;;;;;5117974;27;20055;-88
2024/01/29 07:32:54;;;;;;;;;;;;;;;;;;5111962;28;20040;-90
2024/01/29 07:35:20;;;;;;;8.23;4.25;;;;;;;;;;5090607;28;19969;-88
2024/01/29 07:37:46;;;;;;;;;;;;;;;;;;5092287;28;20114;-90
2024/01/29 07:40:12;;;;;;;8.27;4.10;;;;;;;;;;5096307;28;20379;-88
2024/01/29 07:42:38;;;;;;;8.57;4.18;;;;;;;;;;5093111;28;20134;-88
2024/01/29 07:45:04;;;;;;;;;;;;;;;;;;5077618;28;20052;-88
2024/01/29 07:47:31;;;;;;;8.85;4.40;;;;;;;;;;5091058;28;20016;-89
2024/01/29 07:49:57;;;;;;;7.97;4.45;;;;;;;;;;5107665;28;20523;-88
2024/01/29 07:52:23;;;;;;;8.68;4.25;;;;;;;;;;5096387;28;20036;-90
2024/01/29 07:54:49;;;;;;;;;;;;;;;;;;5097123;28;20127;-83
2024/01/29 07:57:15;;;;;;;7.18;4.15;;;;;;;;;;5095038;28;19926;-87
2024/01/29 07:59:42;;;;;;;9.25;4.53;;;;;;;;;;5097401;28;20055;-88
2024/01/29 08:02:09;;;;;;;;;;;;;;;;;;5110862;27;20039;-90
2024/01/29 08:04:35;;;;;;;;;;;;;;;;;;5107665;27;20534;-88
2024/01/29 08:07:01;;;;;;;11.48;4.75;;;;;;;;;;5098354;28;20014;-89
2024/01/29 08:09:27;;;;;;;;;;;;;;;;;;5107253;28;20135;-88
2024/01/29 08:11:53;;;;;;;10.73;5.07;;;;;;;;;;5093872;28;19955;-88
2024/01/29 08:14:19;;;;;;;;;;;;;;;;;;5085595;28;20463;-89
2024/01/29 08:16:45;;;;;;;9.13;4.53;;;;;;;;;;5092732;28;20022;-88
2024/01/29 08:19:11;;;;;;;9.60;4.55;;;;;;;;;;5110319;27;20047;-89
2024/01/29 08:21:37;;;;;;;9.25;4.78;;;;;;;;;;5112618;27;20189;-89
2024/01/29 08:24:04;;;;;;;7.40;4.35;;;;;;;;;;5101321;28;20540;-89
2024/01/29 08:26:30;;;;;;;9.77;5.03;;;;;;;;;;5073610;27;20045;-88
2024/01/29 08:28:56;;;;;;;;;;;;;;;;;;5104234;27;20048;-89
2024/01/29 08:31:23;;;;;;;10.02;4.43;;;;;;;;;;5115652;27;19972;-89
2024/01/29 08:33:52;;;;;;;9.27;4.57;;;;;;;;;;5129937;27;20051;-88
2024/01/29 08:36:20;;;;;;;13.32;5.55;;;;;;;;;;5101322;27;20050;-89
2024/01/29 08:38:47;;;;;;;9.63;4.70;;;;;;;;;;5110959;27;20048;-89
2024/01/29 08:41:13;;;;;;;11.73;5.60;;;;;;;;;;5113289;28;20044;-88
2024/01/29 08:43:39;;;;;;;10.02;4.82;;;;;;;;;;5094123;28;20127;-89
2024/01/29 08:46:05;;;;;;;9.02;4.70;;;;;;;;;;5109536;27;20043;-88
2024/01/29 08:48:32;;;;;;;10.93;5.30;;;;;;;;;;5121762;27;20050;-88
2024/01/29 08:50:59;;;;;;;10.23;4.97;;;;;;;;;;5097488;28;20036;-90
2024/01/29 08:53:25;;;;;;;11.30;6.20;;;;;;;;;;5130309;27;20095;-88
2024/01/29 08:55:51;;;;;;;10.13;5.25;;;;;;;;;;5101518;28;20036;-89
2024/01/29 08:58:17;;;;;;;10.30;6.38;;;;;;;;;;5068799;28;20463;-89
2024/01/29 09:00:43;;;;;;;9.85;4.82;;;;;;;;;;5091749;28;20247;-89
2024/01/29 09:03:09;;;;;;;9.65;4.93;;;;;;;;;;5068580;28;20043;-94
2024/01/29 09:05:36;;;;;;;9.68;5.03;;;;;;;;;;5084143;28;20086;-92
2024/01/29 09:08:02;;;;;;;10.93;5.65;;;;;;;;;;5078496;28;20393;-89
2024/01/29 09:10:28;;;;;;;9.23;5.22;;;;;;;;;;5110615;28;20155;-83
2024/01/29 09:12:54;;;;;;;10.88;5.25;;;;;;;;;;5125991;27;20059;-85
2024/01/29 09:15:20;;;;;;;12.60;6.13;;;;;;;;;;5112935;28;20051;-88
2024/01/29 09:17:47;;;;;;;11.13;5.28;;;;;;;;;;5126070;27;20039;-88
2024/01/29 09:20:14;;;;;;;10.23;5.15;;;;;;;;;;5084060;28;20076;-89
2024/01/29 09:22:40;;;;;;;10.60;5.50;;;;;;;;;;5085270;28;20048;-85
2024/01/29 09:25:07;;;;;;;10.38;5.53;;;;;;;;;;5092641;28;20075;-84
2024/01/29 09:27:34;;;;;;;12.27;6.38;;;;;;;;;;5075544;28;20048;-85
2024/01/29 09:29:59;;;;;;;;;;;;;;;;;;5088259;27;20091;-85
2024/01/29 09:32:26;;;;;;;9.05;5.50;;;;;;;;;;5118819;27;19994;-86
2024/01/29 09:34:52;;;;;;;;;;;;;;;;;;5116976;27;20038;-87
2024/01/29 09:37:18;;;;;;;9.75;5.22;;;;;;;;;;5117563;27;19937;-85
2024/01/29 09:39:45;;;;;;;13.55;5.35;;;;;;;;;;5130684;27;20491;-89
2024/01/29 09:42:13;;;;;;;12.15;5.47;;;;;;;;;;5115497;27;20054;-85
2024/01/29 09:44:40;;;;;;;11.10;5.72;;;;;;;;;;5127885;27;20046;-85
2024/01/29 09:47:07;;;;;;;10.30;5.57;;;;;;;;;;5122426;27;20498;-84
2024/01/29 09:49:34;;;;;;;9.93;5.50;;;;;;;;;;5135275;27;20042;-79
2024/01/29 09:52:02;;;;;;;9.93;5.60;;;;;;;;;;5127856;27;20452;-85
2024/01/29 09:54:28;;;;;;;11.13;5.93;;;;;;;;;;5135182;27;20045;-85
2024/01/29 09:56:54;;;;;;;10.30;5.85;;;;;;;;;;5134711;27;20042;-85
2024/01/29 09:59:20;;;;;;;16.85;6.03;;;;;;;;;;5114001;27;20043;-83
2024/01/29 10:01:46;;;;;;;;;;;;;;;;;;5110522;28;20047;-83
2024/01/29 10:04:12;;;;;;;11.57;5.60;;;;;;;;;;5128248;28;19919;-72
2024/01/29 10:06:43;;;;;;;10.20;5.47;;;;;;;;;;5123790;27;20441;-70
2024/01/29 10:09:11;;;;;;;10.48;5.50;;;;;;;;;;5130990;28;20492;-88
2024/01/29 10:11:39;;;;;;;10.40;5.88;;;;;;;;;;5114282;28;20051;-84
2024/01/29 10:14:05;;;;;;;11.02;5.65;;;;;;;;;;5118069;27;20042;-84
2024/01/29 10:16:32;;;;;;;10.63;5.78;;;;;;;;;;5129721;27;20471;-86
2024/01/29 10:18:59;;;;;;;11.88;5.80;;;;;;;;;;5130465;27;20088;-87
2024/01/29 10:21:26;;;;;;;9.85;5.45;;;;;;;;;;5126657;27;20107;-85
2024/01/29 10:23:58;;;;;;;10.50;5.80;;;;;;;;;;5098569;28;20047;-84
2024/01/29 10:26:25;;;;;;;13.68;5.85;;;;;;;;;;5100296;27;20438;-84
2024/01/29 10:29:05;;;;;;;13.20;5.93;;;;;;;;;;5134995;27;20068;-84
2024/01/29 10:31:31;;;;;;;11.75;5.88;;;;;;;;;;5113800;28;20467;-84
2024/01/29 10:33:58;;;;;;;10.50;5.93;;;;;;;;;;5097332;28;20143;-87
2024/01/29 10:36:24;;;;;;;11.98;6.50;;;;;;;;;;5113253;28;20079;-84
2024/01/29 10:38:50;;;;;;;;;;;;;;;;;;5114429;28;20039;-86
2024/01/29 10:41:17;;;;;;;11.25;6.38;;;;;;;;;;5122922;27;19980;-85
2024/01/29 10:43:53;;;;;;;11.60;6.70;;;;;;;;;;5089405;28;20089;-87
2024/01/29 10:46:20;;;;;;;11.00;6.18;;;;;;;;;;5114227;28;20039;-87
2024/01/29 10:48:46;;;;;;;11.85;6.80;;;;;;;;;;5097707;27;20062;-86
2024/01/29 10:51:13;;;;;;;15.52;6.60;;;;;;;;;;5117925;27;20082;-87
2024/01/29 10:53:41;;;;;;;16.15;7.00;;;;;;;;;;5136743;27;20043;-92
2024/01/29 10:56:07;;;;;;;11.50;6.60;;;;;;;;;;5119950;27;20043;-91
2024/01/29 10:58:34;;;;;;;12.05;6.82;;;;;;;;;;5119474;27;20046;-91
2024/01/29 11:01:01;;;;;;;11.02;6.72;;;;;;;;;;5136058;27;20039;-91
2024/01/29 11:03:27;;;;;;;11.23;6.10;;;;;;;;;;5137606;27;20546;-84
2024/01/29 11:06:00;;;;;;;12.63;6.82;;;;;;;;;;5135970;27;20396;-84
2024/01/29 11:08:31;;;;;;;12.90;6.93;;;;;;;;;;5121124;27;20035;-84
2024/01/29 11:10:57;;;;;;;14.32;7.00;;;;;;;;;;5134131;27;20054;-84
2024/01/29 11:13:24;;;;;;;14.63;7.22;;;;;;;;;;5117203;27;20096;-86
2024/01/29 11:15:50;;;;;;;12.82;6.78;;;;;;;;;;5101013;27;20529;-86
2024/01/29 11:18:16;;;;;;;14.13;7.13;;;;;;;;;;5101521;27;20043;-87
2024/01/29 11:20:42;;;;;;;11.82;6.57;;;;;;;;;;5118166;27;20459;-87
2024/01/29 11:23:11;;;;;;;10.75;6.40;;;;;;;;;;5101079;27;20039;-86
2024/01/29 11:25:37;;;;;;;13.82;6.80;;;;;;;;;;5118366;27;20456;-86
2024/01/29 11:28:03;;;;;;;13.30;7.25;;;;;;;;;;5137810;27;20062;-86
2024/01/29 11:30:31;;;;;;;12.77;7.30;;;;;;;;;;5120488;27;20479;-86
2024/01/29 11:33:13;;;;;;;12.13;6.80;;;;;;;;;;5129397;27;20049;-87
2024/01/29 11:35:39;;;;;;;10.10;6.50;;;;;;;;;;5117857;27;20051;-86
2024/01/29 11:38:11;;;;;;;14.15;7.15;;;;;;;;;;5117732;27;20043;-85
2024/01/29 11:40:41;;;;;;;11.80;6.72;;;;;;;;;;5103008;27;20050;-86
2024/01/29 11:43:14;;;;;;;11.75;6.75;;;;;;;;;;5121461;27;20046;-86
2024/01/29 11:45:40;;;;;;;12.32;7.05;;;;;;;;;;5104495;27;20137;-86
2024/01/29 11:48:13;;;;;;;13.35;7.03;;;;;;;;;;5138239;27;20053;-86
2024/01/29 11:50:40;;;;;;;11.80;6.70;;;;;;;;;;5121276;27;20546;-87
2024/01/29 11:53:09;;;;;;;13.55;7.18;;;;;;;;;;5118038;27;20148;-87
2024/01/29 11:55:35;;;;;;;13.15;6.82;;;;;;;;;;5138090;27;20062;-86
2024/01/29 11:58:01;;;;;;;12.88;6.82;;;;;;;;;;5127481;27;20047;-86
2024/01/29 12:00:27;;;;;;;13.10;7.00;;;;;;;;;;5110512;27;20050;-83
2024/01/29 12:02:54;;;;;;;13.00;6.80;;;;;;;;;;5137536;27;20046;-85
2024/01/29 12:05:20;;;;;;;;;;;;;;;;;;5120879;27;20043;-84
2024/01/29 12:07:49;;;;;;;13.25;7.00;;;;;;;;;;5138086;27;20344;-84
2024/01/29 12:10:16;;;;;;;13.95;7.28;;;;;;;;;;5120747;27;20061;-83
2024/01/29 12:12:42;;;;;;;13.07;6.70;;;;;;;;;;5119684;27;20044;-85
2024/01/29 12:15:12;;;;;;;12.20;6.63;;;;;;;;;;5137350;27;20077;-84
2024/01/29 12:17:40;;;;;;;11.95;6.82;;;;;;;;;;5137845;27;20043;-85
2024/01/29 12:20:08;;;;;;;12.02;7.43;;;;;;;;;;5120002;27;20051;-84
2024/01/29 12:22:34;;;;;;;10.70;7.30;;;;;;;;;;5120723;27;20039;-84
2024/01/29 12:25:00;;;;;;;11.93;7.07;;;;;;;;;;5137705;27;20183;-85
2024/01/29 12:27:26;;;;;;;;;;;;;;;;;;5094791;27;20043;-84
2024/01/29 12:29:54;;;;;;;12.93;7.60;;;;;;;;;;5101111;27;19926;-86
2024/01/29 12:32:20;;;;;;;11.93;7.47;;;;;;;;;;5133562;27;20535;-85
2024/01/29 12:34:50;;;;;;;12.93;7.82;;;;;;;;;;5127968;27;20065;-86
2024/01/29 12:37:25;;;;;;;12.20;7.43;;;;;;;;;;5135786;27;20039;-86
2024/01/29 12:39:55;;;;;;;14.00;8.07;;;;;;;;;;5100448;27;20058;-86
2024/01/29 12:42:22;;;;;;;15.30;8.52;;;;;;;;;;5114440;27;20046;-85
2024/01/29 12:44:50;;;;;;;14.07;7.80;;;;;;;;;;5116878;27;20186;-85
2024/01/29 12:47:17;;;;;;;16.60;8.25;;;;;;;;;;5100096;27;20046;-85
2024/01/29 12:49:43;;;;;;;13.88;8.43;;;;;;;;;;5116852;27;20047;-88
2024/01/29 12:52:10;;;;;;;;;;;;;;;;;;5133890;27;20046;-86
2024/01/29 12:54:36;;;;;;;13.02;8.02;;;;;;;;;;5100124;27;20303;-88
2024/01/29 12:57:03;;;;;;;16.38;8.60;;;;;;;;;;5116735;27;20047;-87
2024/01/29 12:59:29;;;;;;;15.98;8.32;;;;;;;;;;5116544;27;20418;-86
2024/01/29 13:01:55;;;;;;;17.25;8.95;;;;;;;;;;5131551;27;20399;-88
2024/01/29 13:04:21;;;;;;;;;;;;;;;;;;5131910;27;20042;-87
2024/01/29 13:06:47;;;;;;;15.33;8.27;;;;;;;;;;5109826;27;19923;-87
2024/01/29 13:09:14;;;;;;;;;;;;;;;;;;5089999;27;20039;-87
2024/01/29 13:11:40;;;;;;;13.80;7.72;;;;;;;;;;5100095;27;19919;-87
2024/01/29 13:14:06;;;;;;;15.05;8.68;;;;;;;;;;5132776;27;20132;-87
2024/01/29 13:16:32;;;;;;;14.13;7.88;;;;;;;;;;5136997;27;20042;-86
2024/01/29 13:18:58;;;;;;;15.70;8.55;;;;;;;;;;5102602;27;20039;-87
2024/01/29 13:21:24;;;;;;;16.60;8.15;;;;;;;;;;5119098;27;20087;-87
2024/01/29 13:23:50;;;;;;;;;;;;;;;;;;5133537;27;20073;-88
2024/01/29 13:26:16;;;;;;;13.63;8.52;;;;;;;;;;5118148;27;19919;-88
2024/01/29 13:28:42;;;;;;;15.32;8.52;;;;;;;;;;5116621;27;20050;-87
2024/01/29 13:31:08;;;;;;;;;;;;;;;;;;5098701;27;20051;-86
2024/01/29 13:33:34;;;;;;;14.10;8.02;;;;;;;;;;5132684;27;19927;-88
2024/01/29 13:36:02;;;;;;;16.50;8.85;;;;;;;;;;5091451;27;20045;-84
2024/01/29 13:38:28;;;;;;;15.20;8.70;;;;;;;;;;5117073;27;20074;-83
2024/01/29 13:40:54;;;;;;;;;;;;;;;;;;5135643;27;20532;-86
2024/01/29 13:43:20;;;;;;;15.93;9.07;;;;;;;;;;5135603;27;19919;-87
2024/01/29 13:45:47;;;;;;;16.15;9.57;;;;;;;;;;5134897;27;20051;-86
2024/01/29 13:48:13;;;;;;;15.70;9.40;;;;;;;;;;5115053;27;20057;-87
2024/01/29 13:50:39;;;;;;;15.63;9.05;;;;;;;;;;5115414;27;20046;-87
2024/01/29 13:53:06;;;;;;;16.38;9.60;;;;;;;;;;5133622;27;20034;-86
2024/01/29 13:55:32;;;;;;;16.52;8.98;;;;;;;;;;5116076;27;20043;-87
2024/01/29 13:57:58;;;;;;;16.23;8.95;;;;;;;;;;5133753;27;20165;-87
2024/01/29 14:00:24;;;;;;;14.35;8.60;;;;;;;;;;5114526;27;20035;-87
2024/01/29 14:02:51;;;;;;;;;;;;;;;;;;5096709;27;20039;-89
2024/01/29 14:05:17;;;;;;;16.08;8.98;;;;;;;;;;5115216;27;19979;-83
2024/01/29 14:07:43;;;;;;;14.35;8.80;;;;;;;;;;5116758;27;20043;-85
2024/01/29 14:10:11;;;;;;;15.18;8.70;;;;;;;;;;5109401;27;20047;-83
2024/01/29 14:12:37;;;;;;;17.27;9.13;;;;;;;;;;5117740;27;20046;-87
2024/01/29 14:15:04;;;;;;;21.13;9.13;;;;;;;;;;5114014;27;20039;-86
2024/01/29 14:17:33;;;;;;;14.55;8.93;;;;;;;;;;5117814;27;20078;-86
2024/01/29 14:19:59;;;;;;;15.93;9.20;;;;;;;;;;5135071;27;20103;-87
2024/01/29 14:22:25;;;;;;;;;;;;;;;;;;5118417;27;20613;-86
2024/01/29 14:24:51;;;;;;;14.95;8.80;;;;;;;;;;5118877;27;19963;-86
2024/01/29 14:27:17;;;;;;;;;;;;;;;;;;5118929;27;20043;-87
2024/01/29 14:29:43;;;;;;;15.45;9.02;;;;;;;;;;5135913;27;20317;-85
2024/01/29 14:32:12;;;;;;;;;;;;;;;;;;5131739;28;20053;-86
2024/01/29 14:34:38;;;;;;;17.13;9.18;;;;;;;;;;5126596;28;19935;-86
2024/01/29 14:37:04;;;;;;;;;;;;;;;;;;5130203;27;20123;-84
2024/01/29 14:39:32;;;;;;;14.48;8.80;;;;;;;;;;5122346;27;20022;-87
2024/01/29 14:41:58;;;;;;;15.13;9.15;;;;;;;;;;5118741;27;20112;-88
2024/01/29 14:44:24;;;;;;;14.77;9.18;;;;;;;;;;5118793;27;20043;-87
2024/01/29 14:46:50;;;;;;;16.75;8.52;;;;;;;;;;5118558;27;20043;-91
2024/01/29 14:49:16;;;;;;;18.75;9.20;;;;;;;;;;5119596;27;20039;-89
2024/01/29 14:51:43;;;;;;;;;;;;;;;;;;5136808;27;20045;-89
2024/01/29 14:54:13;;;;;;;13.80;8.30;;;;;;;;;;5133932;27;19983;-89